LFQQ/LIL METAR and TAF weather

Enter ICAO airport designator
Station Type Date Time Source
LFQQ METAR 2018/05/22 13:30 UTC NOAA

LFQQ 221330Z AUTO 33009KT 9999 TS ///CB 22/13 Q1012 TEMPO 3000 SHRA


Station Type Date Time Source
LFQQ Decoded METAR 2018/05/22 13:30 UTC NOAA

Lille, France (LFQQ) 50-34N 003-06E 52M
May 22, 2018 - 09:30 AM EDT / 2018.05.22 1330 UTC
Wind: from the NNW (330 degrees) at 10 MPH (9 KT):0
Visibility: greater than 7 mile(s):0
Weather: thunder; Cumulonimbus clouds observed
Temperature: 71 F (22 C)
Dew Point: 55 F (13 C)
Relative Humidity: 56%
Pressure (altimeter): 29.88 in. Hg (1012 hPa)
ob: LFQQ 221330Z AUTO 33009KT 9999 TS ///CB 22/13 Q1012 TEMPO 3000 SHRA
cycle: 13

Station Type Date Time Source
LFQQ TAF 2018/05/22 13:15 UTC NOAA

TAF
AMD TAF
AMD LFQQ 221311Z 2213/2318 32005KT CAVOK
TEMPO 2213/2220 3000 SHRA BKN040CB PROB40
TEMPO 2213/2220 TSRAGR
TEMPO 2300/2310 3000 SHRA BKN007 BKN020CB
TEMPO 2312/2318 3000 SHRA BKN040CB


Example: see airport list